createdAt,value
2018-04-10T00:01:55.602Z,99.90
2018-04-10T00:04:23.306Z,99.90
2018-04-10T00:06:50.996Z,99.90
2018-04-10T00:09:18.691Z,99.90
2018-04-10T00:11:47.170Z,99.90
2018-04-10T00:14:14.830Z,99.90
2018-04-10T00:16:42.499Z,99.90
2018-04-10T00:19:10.974Z,99.90
2018-04-10T00:21:39.382Z,99.90
2018-04-10T00:24:07.077Z,99.90
2018-04-10T00:26:34.740Z,99.90
2018-04-10T00:29:02.376Z,99.90
2018-04-10T00:31:30.102Z,99.90
2018-04-10T00:33:58.586Z,99.90
2018-04-10T00:36:26.992Z,99.90
2018-04-10T00:38:54.665Z,99.90
2018-04-10T00:41:22.352Z,99.90
2018-04-10T00:43:50.024Z,99.90
2018-04-10T00:46:17.714Z,99.90
2018-04-10T00:48:45.441Z,99.90
2018-04-10T00:51:13.080Z,99.90
2018-04-10T00:53:40.754Z,99.90
2018-04-10T00:56:08.467Z,99.90
2018-04-10T00:58:36.096Z,99.90
2018-04-10T01:01:03.794Z,99.90
2018-04-10T01:03:31.479Z,99.90
2018-04-10T01:05:59.149Z,99.90
2018-04-10T01:08:26.831Z,99.90
2018-04-10T01:10:54.497Z,99.90
2018-04-10T01:13:22.166Z,99.90
2018-04-10T01:15:50.624Z,99.90
2018-04-10T01:18:18.326Z,99.90
2018-04-10T01:20:45.978Z,99.90
2018-04-10T01:23:13.646Z,99.90
2018-04-10T01:25:41.350Z,99.90
2018-04-10T01:28:09.016Z,99.90
2018-04-10T01:30:36.706Z,99.90
2018-04-10T01:33:05.182Z,99.90
2018-04-10T01:35:32.835Z,99.90
2018-04-10T01:38:00.535Z,99.90
2018-04-10T01:40:28.180Z,99.90
2018-04-10T01:42:55.831Z,99.90
2018-04-10T01:45:24.292Z,99.90
2018-04-10T01:47:51.983Z,99.90
2018-04-10T01:50:19.638Z,99.90
2018-04-10T01:52:47.306Z,99.90
2018-04-10T01:55:15.049Z,99.90
2018-04-10T01:57:42.693Z,99.90
2018-04-10T02:00:10.421Z,99.90
2018-04-10T02:02:38.089Z,99.90
2018-04-10T02:05:05.761Z,99.90
2018-04-10T02:07:33.424Z,99.90
2018-04-10T02:10:18.715Z,99.90
2018-04-10T02:12:46.394Z,99.90
2018-04-10T02:15:14.854Z,99.90
2018-04-10T02:17:42.548Z,99.90
2018-04-10T02:20:10.225Z,99.90
2018-04-10T02:22:37.921Z,99.90
2018-04-10T02:25:05.628Z,99.90
2018-04-10T02:27:33.295Z,99.90
2018-04-10T02:30:00.990Z,99.90
2018-04-10T02:32:28.626Z,99.90
2018-04-10T02:34:56.328Z,99.90
2018-04-10T02:37:24.016Z,99.90
2018-04-10T02:39:52.457Z,99.90
2018-04-10T02:42:20.234Z,99.90
2018-04-10T02:44:47.993Z,99.90
2018-04-10T02:47:15.650Z,99.90
2018-04-10T02:49:43.369Z,99.90
2018-04-10T02:52:11.064Z,99.90
2018-04-10T02:54:38.723Z,99.90
2018-04-10T02:57:06.403Z,99.90
2018-04-10T02:59:34.105Z,99.90
2018-04-10T03:02:01.779Z,99.90
2018-04-10T03:04:29.485Z,99.90
2018-04-10T03:06:57.151Z,99.90
2018-04-10T03:09:24.785Z,99.90
2018-04-10T03:11:52.458Z,99.90
2018-04-10T03:14:20.194Z,99.90
2018-04-10T03:16:47.830Z,99.90
2018-04-10T03:19:15.510Z,99.90
2018-04-10T03:21:43.191Z,99.90
2018-04-10T03:24:10.858Z,99.90
2018-04-10T03:26:38.547Z,99.90
2018-04-10T03:29:06.246Z,99.90
2018-04-10T03:31:34.678Z,99.90
2018-04-10T03:34:02.355Z,99.90
2018-04-10T03:36:30.070Z,99.90
2018-04-10T03:38:57.724Z,99.90
2018-04-10T03:41:25.415Z,99.90
2018-04-10T03:43:53.094Z,99.90
2018-04-10T03:46:21.534Z,99.90
2018-04-10T03:48:49.205Z,99.90
2018-04-10T03:51:16.901Z,99.90
2018-04-10T03:53:45.304Z,99.90
2018-04-10T03:56:12.984Z,99.90
2018-04-10T03:58:40.650Z,99.90
2018-04-10T04:01:08.274Z,99.90
2018-04-10T04:03:35.952Z,99.90
2018-04-10T04:06:03.655Z,99.90
2018-04-10T04:08:31.313Z,99.90
2018-04-10T04:10:58.981Z,99.90
2018-04-10T04:13:26.648Z,99.90
2018-04-10T04:15:54.302Z,99.90
2018-04-10T04:21:33.405Z,99.90
2018-04-10T04:24:01.083Z,99.90
2018-04-10T04:26:28.777Z,99.90
2018-04-10T04:28:57.173Z,99.90
2018-04-10T04:31:25.630Z,99.90
2018-04-10T04:33:54.068Z,99.90
2018-04-10T04:36:21.746Z,99.90
2018-04-10T04:38:49.447Z,99.90
2018-04-10T04:41:17.193Z,99.90
2018-04-10T04:43:45.722Z,99.90
2018-04-10T04:46:13.434Z,99.90
2018-04-10T04:48:41.096Z,99.90
2018-04-10T04:51:09.488Z,99.90
2018-04-10T04:53:37.188Z,99.90
2018-04-10T04:56:04.898Z,99.90
2018-04-10T04:58:32.554Z,99.90
2018-04-10T05:01:00.210Z,99.90
2018-04-10T05:03:27.981Z,99.90
2018-04-10T05:05:56.448Z,99.90
2018-04-10T05:08:24.135Z,99.90
2018-04-10T05:10:51.794Z,99.90
2018-04-10T05:13:19.489Z,99.90
2018-04-10T05:15:47.217Z,99.90
2018-04-10T05:18:15.652Z,99.90
2018-04-10T05:20:43.313Z,99.90
2018-04-10T05:23:11.029Z,99.90
2018-04-10T05:25:38.681Z,99.90
2018-04-10T05:28:06.337Z,99.90
2018-04-10T05:30:34.811Z,99.90
2018-04-10T05:33:02.489Z,99.90
2018-04-10T05:35:30.884Z,99.90
2018-04-10T05:37:58.604Z,99.90
2018-04-10T05:40:27.035Z,99.90
2018-04-10T05:42:54.704Z,99.90
2018-04-10T05:45:22.419Z,99.90
2018-04-10T05:47:50.861Z,99.90
2018-04-10T05:50:18.514Z,99.90
2018-04-10T05:52:46.179Z,99.90
2018-04-10T05:55:13.849Z,99.90
2018-04-10T05:57:41.574Z,99.90
2018-04-10T06:00:09.325Z,99.90
2018-04-10T06:02:36.990Z,99.90
2018-04-10T06:05:04.706Z,99.90
2018-04-10T06:07:32.382Z,99.90
2018-04-10T06:10:00.104Z,99.90
2018-04-10T06:12:27.783Z,99.90
2018-04-10T06:14:55.482Z,99.90
2018-04-10T06:17:23.181Z,99.90
2018-04-10T06:19:50.922Z,99.90
2018-04-10T06:22:18.637Z,99.90
2018-04-10T06:24:47.098Z,99.90
2018-04-10T06:27:14.809Z,99.90
2018-04-10T06:29:42.565Z,99.90
2018-04-10T06:32:10.247Z,99.90
2018-04-10T06:34:37.907Z,99.90
2018-04-10T06:37:05.680Z,99.90
2018-04-10T06:39:33.463Z,99.90
2018-04-10T06:42:01.139Z,99.90
2018-04-10T06:44:29.593Z,99.90
2018-04-10T06:46:57.304Z,99.90
2018-04-10T06:49:25.716Z,99.90
2018-04-10T06:51:53.435Z,99.90
2018-04-10T06:54:21.930Z,99.90
2018-04-10T06:56:49.583Z,99.90
2018-04-10T06:59:17.304Z,99.90
2018-04-10T07:01:45.011Z,99.90
2018-04-10T07:04:12.678Z,99.90
2018-04-10T07:06:40.387Z,99.90
2018-04-10T07:09:08.119Z,99.90
2018-04-10T07:11:35.825Z,99.90
2018-04-10T07:14:03.547Z,99.90
2018-04-10T07:16:31.197Z,99.90
2018-04-10T07:18:58.828Z,99.90
2018-04-10T07:21:26.482Z,99.90
2018-04-10T07:23:54.149Z,99.90
2018-04-10T07:26:22.546Z,99.90
2018-04-10T07:28:50.215Z,99.90
2018-04-10T07:31:17.905Z,99.90
2018-04-10T07:33:46.340Z,99.90
2018-04-10T07:36:14.045Z,99.90
2018-04-10T07:38:41.728Z,99.90
2018-04-10T07:41:10.175Z,99.90
2018-04-10T07:43:37.862Z,99.90
2018-04-10T07:46:05.567Z,99.90
2018-04-10T07:48:33.210Z,99.90
2018-04-10T07:51:01.641Z,99.90
2018-04-10T07:53:29.327Z,99.90
2018-04-10T07:55:57.030Z,99.90
2018-04-10T07:58:24.721Z,99.90
2018-04-10T08:00:52.437Z,99.90
2018-04-10T08:03:20.863Z,99.90
2018-04-10T08:05:48.546Z,99.90
2018-04-10T08:08:16.210Z,99.90
2018-04-10T08:10:43.845Z,99.90
2018-04-10T08:13:11.541Z,99.90
2018-04-10T08:15:40.000Z,99.90
2018-04-10T08:18:07.654Z,99.90
2018-04-10T08:20:35.334Z,99.90
2018-04-10T08:23:03.074Z,99.90
2018-04-10T08:25:30.724Z,99.90
2018-04-10T08:27:58.407Z,99.90
2018-04-10T08:30:26.104Z,99.90
2018-04-10T08:32:53.778Z,99.90
2018-04-10T08:35:21.458Z,99.90
2018-04-10T08:37:49.177Z,99.90
2018-04-10T08:40:17.636Z,99.90
2018-04-10T08:42:45.387Z,99.90
2018-04-10T08:45:13.093Z,99.90
2018-04-10T08:47:40.758Z,99.90
2018-04-10T08:50:08.501Z,99.90
2018-04-10T08:52:36.943Z,99.90
2018-04-10T08:55:04.596Z,99.90
2018-04-10T08:57:32.321Z,99.90
2018-04-10T08:59:59.982Z,99.90
2018-04-10T09:02:27.656Z,99.90
2018-04-10T09:04:55.394Z,99.90
2018-04-10T09:07:23.103Z,99.90
2018-04-10T09:09:50.758Z,99.90
2018-04-10T09:12:18.439Z,99.90
2018-04-10T09:14:46.957Z,99.90
2018-04-10T09:17:14.621Z,99.90
2018-04-10T09:19:42.288Z,99.90
2018-04-10T09:22:09.962Z,99.90
2018-04-10T09:24:38.349Z,99.90
2018-04-10T09:27:06.017Z,99.90
2018-04-10T09:29:33.702Z,99.90
2018-04-10T09:32:01.367Z,99.90
2018-04-10T09:34:29.820Z,99.90
2018-04-10T09:36:57.482Z,99.90
2018-04-10T09:39:25.098Z,99.90
2018-04-10T09:41:52.759Z,99.90
2018-04-10T09:44:20.482Z,99.90
2018-04-10T09:46:48.938Z,99.90
2018-04-10T09:49:16.626Z,99.90
2018-04-10T09:51:44.354Z,99.90
2018-04-10T09:54:12.006Z,99.90
2018-04-10T09:56:39.674Z,99.90
2018-04-10T09:59:07.399Z,99.90
2018-04-10T10:01:35.793Z,99.90
2018-04-10T10:04:03.452Z,99.90
2018-04-10T10:06:31.122Z,99.90
2018-04-10T10:08:58.786Z,99.90
2018-04-10T10:11:26.499Z,99.90
2018-04-10T10:13:54.202Z,99.90
2018-04-10T10:16:22.630Z,99.90
2018-04-10T10:18:50.298Z,99.90
2018-04-10T10:21:18.809Z,99.90
2018-04-10T10:23:46.782Z,99.90
2018-04-10T10:26:14.477Z,99.90
2018-04-10T10:28:42.145Z,99.90
2018-04-10T10:31:09.819Z,99.90
2018-04-10T10:33:37.514Z,99.90
2018-04-10T10:36:05.243Z,99.90
2018-04-10T10:38:32.885Z,99.90
2018-04-10T10:41:00.562Z,99.90
2018-04-10T10:43:28.290Z,99.90
2018-04-10T10:45:55.939Z,99.90
2018-04-10T10:48:23.647Z,99.90
2018-04-10T10:50:51.346Z,99.90
2018-04-10T10:53:19.065Z,99.90
2018-04-10T10:55:46.730Z,99.90
2018-04-10T10:58:14.391Z,99.90
2018-04-10T11:00:42.070Z,99.90
2018-04-10T11:03:10.533Z,99.90
2018-04-10T11:05:38.233Z,99.90
2018-04-10T11:08:05.886Z,99.90
2018-04-10T11:10:33.608Z,99.90
2018-04-10T11:13:01.340Z,99.90
2018-04-10T11:15:29.030Z,99.90
2018-04-10T11:17:56.703Z,99.90
2018-04-10T11:20:25.168Z,99.90
2018-04-10T11:22:52.845Z,99.90
2018-04-10T11:25:21.280Z,99.90
2018-04-10T11:27:48.966Z,99.90
2018-04-10T11:30:16.652Z,99.90
2018-04-10T11:32:46.118Z,99.90
2018-04-10T11:35:13.793Z,99.90
2018-04-10T11:37:41.492Z,99.90
2018-04-10T11:40:09.153Z,99.90
2018-04-10T11:42:36.850Z,99.90
2018-04-10T11:45:04.613Z,99.90
2018-04-10T11:47:32.279Z,99.90
2018-04-10T11:49:59.959Z,99.90
2018-04-10T11:52:27.642Z,99.90
2018-04-10T11:54:56.097Z,99.90
2018-04-10T11:57:23.792Z,99.90
2018-04-10T11:59:51.455Z,99.90
2018-04-10T12:02:19.172Z,99.90
2018-04-10T12:04:47.311Z,99.90
2018-04-10T12:07:15.041Z,99.90
2018-04-10T12:09:43.515Z,99.90
2018-04-10T12:12:11.926Z,99.90
2018-04-10T12:14:39.558Z,99.90
2018-04-10T12:17:07.993Z,99.90
2018-04-10T12:19:35.682Z,99.90
2018-04-10T12:22:04.086Z,99.90
2018-04-10T12:24:31.756Z,99.90
2018-04-10T12:26:59.425Z,99.90
2018-04-10T12:29:27.074Z,99.90
2018-04-10T12:31:54.766Z,99.40
2018-04-10T12:34:22.465Z,99.90
2018-04-10T12:36:50.874Z,99.80
2018-04-10T12:39:18.528Z,99.80
2018-04-10T12:41:46.262Z,98.80
2018-04-10T12:44:14.657Z,95.50
2018-04-10T12:46:43.089Z,96.40
2018-04-10T12:49:10.766Z,96.20
2018-04-10T12:51:38.422Z,95.00
2018-04-10T12:54:06.087Z,93.70
2018-04-10T12:56:33.765Z,93.90
2018-04-10T12:59:02.149Z,92.30
2018-04-10T13:01:29.815Z,92.20
2018-04-10T13:03:57.477Z,91.20
2018-04-10T13:06:25.151Z,90.20
2018-04-10T13:08:52.856Z,92.00
2018-04-10T13:11:20.547Z,90.10
2018-04-10T13:13:49.187Z,90.40
2018-04-10T13:16:17.680Z,91.30
2018-04-10T13:18:45.381Z,91.30
2018-04-10T13:21:13.038Z,91.20
2018-04-10T13:23:40.706Z,89.90
2018-04-10T13:26:08.492Z,88.40
2018-04-10T13:28:36.132Z,89.00
2018-04-10T13:31:03.798Z,86.10
2018-04-10T13:33:31.463Z,88.10
2018-04-10T13:35:59.081Z,84.80
2018-04-10T13:38:26.729Z,85.60
2018-04-10T13:40:54.438Z,85.40
2018-04-10T13:43:22.083Z,82.40
2018-04-10T13:45:49.769Z,82.90
2018-04-10T13:48:17.459Z,84.20
2018-04-10T13:50:45.088Z,83.30
2018-04-10T13:53:12.737Z,84.00
2018-04-10T13:55:40.395Z,86.70
2018-04-10T13:58:08.036Z,84.00
2018-04-10T14:00:35.697Z,83.00
2018-04-10T14:03:04.175Z,84.20
2018-04-10T14:05:32.570Z,83.90
2018-04-10T14:08:00.275Z,83.90
2018-04-10T14:10:27.968Z,84.30
2018-04-10T14:12:56.359Z,82.60
2018-04-10T14:15:24.805Z,78.70
2018-04-10T14:17:53.253Z,79.90
2018-04-10T14:20:20.884Z,79.80
2018-04-10T14:22:48.556Z,78.40
2018-04-10T14:25:16.250Z,78.50
2018-04-10T14:27:43.916Z,78.80
2018-04-10T14:30:11.621Z,78.10
2018-04-10T14:32:40.037Z,76.60
2018-04-10T14:35:07.706Z,76.60
2018-04-10T14:37:35.366Z,76.00
2018-04-10T14:40:03.035Z,74.70
2018-04-10T14:42:30.654Z,73.00
2018-04-10T14:44:58.340Z,74.50
2018-04-10T14:47:26.030Z,75.90
2018-04-10T14:49:53.668Z,74.60
2018-04-10T14:52:21.365Z,73.40
2018-04-10T14:54:49.795Z,73.40
2018-04-10T14:57:17.401Z,73.30
2018-04-10T14:59:45.059Z,72.30
2018-04-10T15:02:13.606Z,70.20
2018-04-10T15:04:41.262Z,69.90
2018-04-10T15:07:08.919Z,69.50
2018-04-10T15:09:36.581Z,69.20
2018-04-10T15:12:04.775Z,66.30
2018-04-10T15:14:32.434Z,64.80
2018-04-10T15:17:00.102Z,65.50
2018-04-10T15:19:27.791Z,65.70
2018-04-10T15:21:56.214Z,65.70
2018-04-10T15:24:23.850Z,65.50
2018-04-10T15:26:51.526Z,65.70
2018-04-10T15:29:19.199Z,64.00
2018-04-10T15:31:47.997Z,63.00
2018-04-10T15:34:15.654Z,63.80
2018-04-10T15:36:43.305Z,64.40
2018-04-10T15:39:10.932Z,63.10
2018-04-10T15:41:38.874Z,65.20
2018-04-10T15:44:07.289Z,64.50
2018-04-10T15:46:34.952Z,64.40
2018-04-10T15:49:02.733Z,64.00
2018-04-10T15:51:30.423Z,64.10
2018-04-10T15:53:58.077Z,62.90
2018-04-10T15:56:25.771Z,62.60
2018-04-10T15:58:53.442Z,63.10
2018-04-10T16:01:21.118Z,62.90
2018-04-10T16:03:48.755Z,63.60
2018-04-10T16:06:16.684Z,64.50
2018-04-10T16:08:45.571Z,66.00
2018-04-10T16:11:13.664Z,66.00
2018-04-10T16:13:41.607Z,67.10
2018-04-10T16:16:10.633Z,70.00
2018-04-10T16:18:39.301Z,70.00
2018-04-10T16:21:07.556Z,70.90
2018-04-10T16:23:35.218Z,71.90
2018-04-10T16:26:02.882Z,71.50
2018-04-10T16:28:30.541Z,73.00
2018-04-10T16:30:58.202Z,72.50
2018-04-10T16:33:25.843Z,72.90
2018-04-10T16:35:53.532Z,72.50
2018-04-10T16:38:21.981Z,73.50
2018-04-10T16:40:49.595Z,74.30
2018-04-10T16:43:17.235Z,73.50
2018-04-10T16:45:45.770Z,73.80
2018-04-10T16:48:13.410Z,73.80
2018-04-10T16:50:41.086Z,75.50
2018-04-10T16:53:08.744Z,74.70
2018-04-10T16:55:36.417Z,73.70
2018-04-10T16:58:04.092Z,74.20
2018-04-10T17:00:32.050Z,73.90
2018-04-10T17:03:00.207Z,74.20
2018-04-10T17:05:30.331Z,74.60
2018-04-10T17:07:57.999Z,75.10
2018-04-10T17:10:25.642Z,75.70
2018-04-10T17:12:53.284Z,75.80
2018-04-10T17:15:20.950Z,75.40
2018-04-10T17:17:48.569Z,76.20
2018-04-10T17:20:17.030Z,77.40
2018-04-10T17:22:44.775Z,77.30
2018-04-10T17:25:12.430Z,77.50
2018-04-10T17:27:40.116Z,78.30
2018-04-10T17:30:07.859Z,78.90
2018-04-10T17:32:35.505Z,79.40
2018-04-10T17:35:03.257Z,80.70
2018-04-10T17:37:30.922Z,80.00
2018-04-10T17:39:58.583Z,80.80
2018-04-10T17:42:26.255Z,81.10
2018-04-10T17:44:55.198Z,81.40
2018-04-10T17:47:23.891Z,82.20
2018-04-10T17:49:53.148Z,83.10
2018-04-10T17:52:21.994Z,83.90
2018-04-10T17:54:50.001Z,85.40
2018-04-10T17:57:18.916Z,85.40
2018-04-10T17:59:46.878Z,85.40
2018-04-10T18:02:16.599Z,86.70
2018-04-10T18:04:44.662Z,86.90
2018-04-10T18:07:13.724Z,87.60
2018-04-10T18:09:41.866Z,87.50
2018-04-10T18:12:09.965Z,88.30
2018-04-10T18:14:38.180Z,88.30
2018-04-10T18:17:06.149Z,88.70
2018-04-10T18:19:34.463Z,89.70
2018-04-10T18:22:02.698Z,90.70
2018-04-10T18:24:30.712Z,91.50
2018-04-10T18:26:59.014Z,92.10
2018-04-10T18:29:27.685Z,92.90
2018-04-10T18:31:56.470Z,93.50
2018-04-10T18:34:24.939Z,93.50
2018-04-10T18:36:52.887Z,93.40
2018-04-10T18:39:21.215Z,93.10
2018-04-10T18:41:49.861Z,93.30
2018-04-10T18:44:19.179Z,93.50
2018-04-10T18:46:48.191Z,93.50
2018-04-10T18:49:16.361Z,93.60
2018-04-10T18:51:44.427Z,93.60
2018-04-10T18:54:12.407Z,93.70
2018-04-10T18:56:40.498Z,94.20
2018-04-10T18:59:08.445Z,93.90
2018-04-10T19:01:36.376Z,93.60
2018-04-10T19:04:06.998Z,93.90
2018-04-10T19:06:35.289Z,95.40
2018-04-10T19:09:05.163Z,98.10
2018-04-10T19:11:33.997Z,99.90
2018-04-10T19:14:01.908Z,99.90
2018-04-10T19:16:29.873Z,99.90
2018-04-10T19:18:57.853Z,99.90
2018-04-10T19:21:25.757Z,99.90
2018-04-10T19:23:53.691Z,99.90
2018-04-10T19:26:21.600Z,99.90
2018-04-10T19:28:49.582Z,99.90
2018-04-10T19:31:17.473Z,99.90
2018-04-10T19:33:45.308Z,99.90
2018-04-10T19:36:13.100Z,99.90
2018-04-10T19:38:40.841Z,99.90
2018-04-10T19:41:08.555Z,99.90
2018-04-10T19:43:36.256Z,99.90
2018-04-10T19:46:05.350Z,99.90
2018-04-10T19:48:33.130Z,99.90
2018-04-10T19:51:01.125Z,99.90
2018-04-10T19:53:28.926Z,99.90
2018-04-10T19:55:56.730Z,99.90
2018-04-10T19:58:25.947Z,99.90
2018-04-10T20:00:54.860Z,99.90
2018-04-10T20:03:22.801Z,99.90
2018-04-10T20:05:50.710Z,99.90
2018-04-10T20:08:19.354Z,99.90
2018-04-10T20:10:47.230Z,99.90
2018-04-10T20:13:15.191Z,99.90
2018-04-10T20:15:43.088Z,99.90
2018-04-10T20:18:11.039Z,99.90
2018-04-10T20:20:38.887Z,99.90
2018-04-10T20:23:06.654Z,99.90
2018-04-10T20:25:34.393Z,99.90
2018-04-10T20:28:02.261Z,99.90
2018-04-10T20:30:29.931Z,99.90
2018-04-10T20:32:57.581Z,99.90
2018-04-10T20:35:25.216Z,99.90
2018-04-10T20:37:53.672Z,99.90
2018-04-10T20:40:21.343Z,99.90
2018-04-10T20:42:49.842Z,99.90
2018-04-10T20:45:17.517Z,99.90
2018-04-10T20:47:45.231Z,99.90
2018-04-10T20:50:12.944Z,99.90
2018-04-10T20:52:40.626Z,99.90
2018-04-10T20:55:08.440Z,99.90
2018-04-10T20:57:37.276Z,99.90
2018-04-10T21:00:05.966Z,99.90
2018-04-10T21:02:38.949Z,99.90
2018-04-10T21:05:06.957Z,99.90
2018-04-10T21:07:42.463Z,99.90
2018-04-10T21:10:10.506Z,99.90
2018-04-10T21:12:39.210Z,99.90
2018-04-10T21:15:07.136Z,99.90
2018-04-10T21:17:35.620Z,99.90
2018-04-10T21:20:03.404Z,99.90
2018-04-10T21:22:32.135Z,99.90
2018-04-10T21:25:00.625Z,99.90
2018-04-10T21:27:28.563Z,99.90
2018-04-10T21:29:58.073Z,99.90
2018-04-10T21:32:26.693Z,99.90
2018-04-10T21:34:55.453Z,99.90
2018-04-10T21:37:24.133Z,99.90
2018-04-10T21:39:51.806Z,99.90
2018-04-10T21:42:20.297Z,99.90
2018-04-10T21:44:48.754Z,99.90
2018-04-10T21:47:16.411Z,99.90
2018-04-10T21:49:44.071Z,99.90
2018-04-10T21:52:11.695Z,99.90
2018-04-10T21:54:39.369Z,99.90
2018-04-10T21:57:07.046Z,99.90
2018-04-10T21:59:34.726Z,99.90
2018-04-10T22:02:03.172Z,99.90
2018-04-10T22:04:30.869Z,99.90
2018-04-10T22:06:59.326Z,99.90
2018-04-10T22:09:27.106Z,99.90
2018-04-10T22:11:55.592Z,99.90
2018-04-10T22:14:24.049Z,99.90
2018-04-10T22:16:51.750Z,99.90
2018-04-10T22:19:19.418Z,99.90
2018-04-10T22:21:47.063Z,99.90
2018-04-10T22:24:15.516Z,99.90
2018-04-10T22:26:43.207Z,99.90
2018-04-10T22:29:11.631Z,99.90
2018-04-10T22:31:39.397Z,99.90
2018-04-10T22:34:07.184Z,99.90
2018-04-10T22:36:35.043Z,99.90
2018-04-10T22:39:02.840Z,99.90
2018-04-10T22:41:30.701Z,99.90
2018-04-10T22:43:58.425Z,99.90
2018-04-10T22:46:26.186Z,99.90
2018-04-10T22:48:53.934Z,99.90
2018-04-10T22:51:22.381Z,99.90
2018-04-10T22:53:50.098Z,99.90
2018-04-10T22:56:17.791Z,99.90
2018-04-10T22:58:45.442Z,99.90
2018-04-10T23:01:13.143Z,99.90
2018-04-10T23:03:40.826Z,99.90
2018-04-10T23:06:08.520Z,99.90
2018-04-10T23:08:36.196Z,99.90
2018-04-10T23:11:03.917Z,99.90
2018-04-10T23:13:31.582Z,99.90
2018-04-10T23:16:00.071Z,99.90
2018-04-10T23:18:28.549Z,99.90
2018-04-10T23:20:56.234Z,99.90
2018-04-10T23:23:23.956Z,99.90
2018-04-10T23:25:51.709Z,99.90
2018-04-10T23:28:19.400Z,99.90
2018-04-10T23:30:47.855Z,99.90
2018-04-10T23:33:15.590Z,99.90
2018-04-10T23:35:43.275Z,99.90
2018-04-10T23:38:10.947Z,99.90
2018-04-10T23:40:38.675Z,99.90
2018-04-10T23:43:06.424Z,99.90
2018-04-10T23:45:34.210Z,99.90
2018-04-10T23:48:01.953Z,99.90
2018-04-10T23:50:29.618Z,99.90
2018-04-10T23:52:57.327Z,99.90
2018-04-10T23:55:25.080Z,99.90
2018-04-10T23:57:52.749Z,99.90
